createdAt,value
2022-10-19T00:00:20.130Z,5.39
2022-10-19T00:01:20.143Z,5.38
2022-10-19T00:02:20.288Z,5.4
2022-10-19T00:03:22.446Z,5.42
2022-10-19T00:04:20.140Z,5.43
2022-10-19T00:05:20.129Z,5.46
2022-10-19T00:06:20.141Z,5.47
2022-10-19T00:07:20.130Z,5.49
2022-10-19T00:08:20.134Z,5.51
2022-10-19T00:09:20.128Z,5.53
2022-10-19T00:10:20.141Z,5.52
2022-10-19T00:11:20.132Z,5.5
2022-10-19T00:12:20.136Z,5.49
2022-10-19T00:13:20.141Z,5.47
2022-10-19T00:14:20.140Z,5.45
2022-10-19T00:15:20.372Z,5.43
2022-10-19T00:16:20.139Z,5.4
2022-10-19T00:17:20.137Z,5.36
2022-10-19T00:18:20.123Z,5.31
2022-10-19T00:19:20.141Z,5.27
2022-10-19T00:20:20.132Z,5.23
2022-10-19T00:21:20.126Z,5.21
2022-10-19T00:22:20.145Z,5.18
2022-10-19T00:23:20.144Z,5.15
2022-10-19T00:24:20.135Z,5.13
2022-10-19T00:25:20.276Z,5.09
2022-10-19T00:26:20.127Z,5.07
2022-10-19T00:27:20.133Z,5.06
2022-10-19T00:28:20.136Z,5.05
2022-10-19T00:29:20.186Z,5.06
2022-10-19T00:30:20.548Z,5.05
2022-10-19T00:31:20.144Z,5.04
2022-10-19T00:32:20.441Z,5.03
2022-10-19T00:33:20.381Z,5.02
2022-10-19T00:34:20.669Z,5.01
2022-10-19T00:35:20.856Z,5.03
2022-10-19T00:36:20.460Z,5.03
2022-10-19T00:37:20.924Z,5.02
2022-10-19T00:38:20.124Z,5.02
2022-10-19T00:39:20.155Z,5.01
2022-10-19T00:40:20.131Z,5
2022-10-19T00:41:20.134Z,5
2022-10-19T00:42:20.130Z,5.01
2022-10-19T00:43:20.135Z,5.02
2022-10-19T00:44:20.131Z,5.02
2022-10-19T00:45:20.142Z,5.01
2022-10-19T00:46:20.126Z,5
2022-10-19T00:47:20.139Z,4.98
2022-10-19T00:48:20.227Z,4.97
2022-10-19T00:49:20.141Z,4.96
2022-10-19T00:50:20.132Z,4.94
2022-10-19T00:51:20.127Z,4.92
2022-10-19T00:52:20.136Z,4.9
2022-10-19T00:53:20.145Z,4.87
2022-10-19T00:54:20.137Z,4.84
2022-10-19T00:55:20.111Z,4.81
2022-10-19T00:56:20.142Z,4.79
2022-10-19T00:57:20.140Z,4.74
2022-10-19T00:58:20.145Z,4.76
2022-10-19T00:59:20.151Z,4.81
2022-10-19T01:00:20.276Z,4.87
2022-10-19T01:01:20.136Z,4.92
2022-10-19T01:02:20.126Z,4.94
2022-10-19T01:03:20.127Z,4.93
2022-10-19T01:04:20.131Z,4.93
2022-10-19T01:05:20.118Z,4.91
2022-10-19T01:06:20.131Z,4.9
2022-10-19T01:07:20.139Z,4.87
2022-10-19T01:08:20.133Z,4.85
2022-10-19T01:09:20.132Z,4.83
2022-10-19T01:10:20.145Z,4.79
2022-10-19T01:11:20.144Z,4.76
2022-10-19T01:12:20.126Z,4.74
2022-10-19T01:13:20.186Z,4.73
2022-10-19T01:14:20.134Z,4.71
2022-10-19T01:15:20.151Z,4.7
2022-10-19T01:16:20.137Z,4.7
2022-10-19T01:17:20.113Z,4.7
2022-10-19T01:18:20.154Z,4.68
2022-10-19T01:19:20.140Z,4.66
2022-10-19T01:20:20.127Z,4.61
2022-10-19T01:21:20.134Z,4.57
2022-10-19T01:22:20.139Z,4.52
2022-10-19T01:23:20.222Z,4.49
2022-10-19T01:24:20.133Z,4.46
2022-10-19T01:25:20.137Z,4.43
2022-10-19T01:26:20.363Z,4.4
2022-10-19T01:27:20.650Z,4.36
2022-10-19T01:28:20.653Z,4.34
2022-10-19T01:29:20.022Z,4.3
2022-10-19T01:30:20.452Z,4.27
2022-10-19T01:31:20.773Z,4.24
2022-10-19T01:32:20.144Z,4.22
2022-10-19T01:33:20.154Z,4.2
2022-10-19T01:34:20.276Z,4.19
2022-10-19T01:35:20.157Z,4.18
2022-10-19T01:36:20.138Z,4.17
2022-10-19T01:37:20.134Z,4.17
2022-10-19T01:38:20.163Z,4.21
2022-10-19T01:39:20.132Z,4.19
2022-10-19T01:40:20.137Z,4.21
2022-10-19T01:41:20.124Z,4.23
2022-10-19T01:42:20.137Z,4.23
2022-10-19T01:43:20.170Z,4.24
2022-10-19T01:44:20.143Z,4.26
2022-10-19T01:45:20.172Z,4.32
2022-10-19T01:46:20.175Z,4.36
2022-10-19T01:47:20.148Z,4.4
2022-10-19T01:48:20.166Z,4.39
2022-10-19T01:49:20.115Z,4.34
2022-10-19T01:50:20.138Z,4.34
2022-10-19T01:51:20.133Z,4.35
2022-10-19T01:52:20.134Z,4.38
2022-10-19T01:53:20.188Z,4.37
2022-10-19T01:54:20.143Z,4.36
2022-10-19T01:55:20.141Z,4.31
2022-10-19T01:56:20.141Z,4.29
2022-10-19T01:57:20.154Z,4.27
2022-10-19T01:58:20.235Z,4.26
2022-10-19T01:59:20.124Z,4.25
2022-10-19T02:00:20.157Z,4.27
2022-10-19T02:01:20.135Z,4.29
2022-10-19T02:02:20.347Z,4.31
2022-10-19T02:03:20.172Z,4.33
2022-10-19T02:04:20.348Z,4.35
2022-10-19T02:05:20.174Z,4.41
2022-10-19T02:06:20.490Z,4.46
2022-10-19T02:07:20.355Z,4.51
2022-10-19T02:08:20.292Z,4.6
2022-10-19T02:09:20.377Z,4.65
2022-10-19T02:10:20.462Z,4.74
2022-10-19T02:11:20.400Z,4.79
2022-10-19T02:12:20.306Z,4.84
2022-10-19T02:13:20.435Z,4.91
2022-10-19T02:14:20.387Z,4.97
2022-10-19T02:15:20.179Z,5.04
2022-10-19T02:16:20.468Z,5.11
2022-10-19T02:17:20.215Z,5.19
2022-10-19T02:18:20.423Z,5.25
2022-10-19T02:19:20.211Z,5.33
2022-10-19T02:20:20.548Z,5.42
2022-10-19T02:21:20.132Z,5.53
2022-10-19T02:22:20.129Z,5.62
2022-10-19T02:23:20.146Z,5.69
2022-10-19T02:24:20.266Z,5.73
2022-10-19T02:25:20.240Z,5.77
2022-10-19T02:26:20.231Z,5.8
2022-10-19T02:27:20.126Z,5.82
2022-10-19T02:28:20.199Z,5.82
2022-10-19T02:29:20.137Z,5.85
2022-10-19T02:30:20.217Z,5.86
2022-10-19T02:31:20.352Z,5.87
2022-10-19T02:32:20.372Z,5.88
2022-10-19T02:33:20.121Z,5.88
2022-10-19T02:34:20.125Z,5.88
2022-10-19T02:35:20.147Z,5.9
2022-10-19T02:36:20.141Z,5.91
2022-10-19T02:37:24.728Z,5.94
2022-10-19T02:38:20.134Z,5.99
2022-10-19T02:39:20.149Z,6.03
2022-10-19T02:40:20.198Z,6.09
2022-10-19T02:41:20.136Z,6.11
2022-10-19T02:42:20.252Z,6.14
2022-10-19T02:43:20.152Z,6.15
2022-10-19T02:44:20.130Z,6.17
2022-10-19T02:45:20.142Z,6.16
2022-10-19T02:46:20.162Z,6.15
2022-10-19T02:47:20.126Z,6.13
2022-10-19T02:48:20.142Z,6.14
2022-10-19T02:49:20.137Z,6.13
2022-10-19T02:50:20.125Z,6.12
2022-10-19T02:51:20.135Z,6.1
2022-10-19T02:52:20.146Z,6.11
2022-10-19T02:53:20.158Z,6.12
2022-10-19T02:54:20.194Z,6.12
2022-10-19T02:55:20.127Z,6.11
2022-10-19T02:56:20.140Z,6.12
2022-10-19T02:57:20.140Z,6.09
2022-10-19T02:58:20.133Z,6.08
2022-10-19T02:59:20.140Z,6.07
2022-10-19T03:00:20.128Z,6.06
2022-10-19T03:01:20.171Z,6.05
2022-10-19T03:02:20.146Z,6.02
2022-10-19T03:03:20.143Z,6
2022-10-19T03:04:20.131Z,6
2022-10-19T03:05:20.264Z,5.98
2022-10-19T03:06:20.272Z,5.96
2022-10-19T03:07:20.208Z,5.94
2022-10-19T03:08:20.133Z,5.93
2022-10-19T03:09:20.144Z,5.92
2022-10-19T03:10:20.130Z,5.91
2022-10-19T03:11:20.131Z,5.91
2022-10-19T03:12:20.134Z,5.92
2022-10-19T03:13:20.133Z,5.92
2022-10-19T03:14:20.139Z,5.93
2022-10-19T03:15:20.143Z,5.92
2022-10-19T03:16:20.141Z,5.91
2022-10-19T03:17:20.176Z,5.91
2022-10-19T03:18:20.132Z,5.9
2022-10-19T03:19:20.130Z,5.89
2022-10-19T03:20:20.128Z,5.88
2022-10-19T03:21:20.125Z,5.87
2022-10-19T03:22:20.121Z,5.85
2022-10-19T03:23:20.128Z,5.84
2022-10-19T03:24:20.163Z,5.82
2022-10-19T03:25:20.131Z,5.82
2022-10-19T03:26:20.136Z,5.82
2022-10-19T03:27:20.204Z,5.81
2022-10-19T03:28:20.197Z,5.81
2022-10-19T03:29:20.194Z,5.81
2022-10-19T03:30:20.128Z,5.82
2022-10-19T03:31:20.141Z,5.87
2022-10-19T03:32:20.132Z,5.88
2022-10-19T03:33:20.158Z,5.88
2022-10-19T03:34:20.178Z,5.87
2022-10-19T03:35:20.125Z,5.84
2022-10-19T03:36:20.135Z,5.8
2022-10-19T03:37:20.134Z,5.75
2022-10-19T03:38:20.133Z,5.71
2022-10-19T03:39:20.185Z,5.67
2022-10-19T03:40:20.152Z,5.64
2022-10-19T03:41:20.144Z,5.61
2022-10-19T03:42:20.141Z,5.58
2022-10-19T03:43:20.117Z,5.56
2022-10-19T03:44:20.189Z,5.58
2022-10-19T03:45:20.502Z,5.62
2022-10-19T03:46:20.126Z,5.68
2022-10-19T03:47:20.411Z,5.7
2022-10-19T03:48:20.303Z,5.73
2022-10-19T03:49:20.633Z,5.75
2022-10-19T03:50:20.273Z,5.71
2022-10-19T03:51:20.463Z,5.68
2022-10-19T03:52:20.410Z,5.65
2022-10-19T03:53:20.144Z,5.6
2022-10-19T03:54:26.460Z,5.56
2022-10-19T03:55:20.377Z,5.5
2022-10-19T03:56:20.150Z,5.47
2022-10-19T03:57:20.132Z,5.39
2022-10-19T03:58:20.142Z,5.38
2022-10-19T03:59:20.139Z,5.38
2022-10-19T04:00:20.163Z,5.39
2022-10-19T04:01:20.218Z,5.39
2022-10-19T04:02:20.132Z,5.39
2022-10-19T04:03:20.150Z,5.39
2022-10-19T04:04:20.142Z,5.39
2022-10-19T04:05:20.226Z,5.37
2022-10-19T04:06:23.231Z,5.34
2022-10-19T04:07:20.138Z,5.3
2022-10-19T04:08:20.144Z,5.25
2022-10-19T04:09:20.126Z,5.2
2022-10-19T04:10:20.142Z,5.16
2022-10-19T04:11:20.123Z,5.11
2022-10-19T04:12:20.147Z,5.06
2022-10-19T04:13:20.151Z,5
2022-10-19T04:14:27.202Z,4.96
2022-10-19T04:15:20.140Z,4.9
2022-10-19T04:16:20.151Z,4.86
2022-10-19T04:17:20.138Z,4.84
2022-10-19T04:18:20.140Z,4.91
2022-10-19T04:19:20.135Z,4.97
2022-10-19T04:20:20.130Z,4.99
2022-10-19T04:21:20.341Z,4.99
2022-10-19T04:22:20.142Z,4.97
2022-10-19T04:23:20.432Z,4.96
2022-10-19T04:24:20.217Z,4.95
2022-10-19T04:25:20.525Z,4.92
2022-10-19T04:26:20.409Z,4.87
2022-10-19T04:27:20.698Z,4.83
2022-10-19T04:28:21.450Z,4.79
2022-10-19T04:29:21.994Z,4.75
2022-10-19T04:30:20.388Z,4.69
2022-10-19T04:31:20.123Z,4.64
2022-10-19T04:32:20.416Z,4.58
2022-10-19T04:33:20.135Z,4.55
2022-10-19T04:34:20.131Z,4.54
2022-10-19T04:35:20.131Z,4.5
2022-10-19T04:36:20.134Z,4.47
2022-10-19T04:37:20.146Z,4.43
2022-10-19T04:38:20.161Z,4.39
2022-10-19T04:39:20.182Z,4.36
2022-10-19T04:40:20.142Z,4.33
2022-10-19T04:41:20.165Z,4.29
2022-10-19T04:42:20.663Z,4.25
2022-10-19T04:43:20.539Z,4.24
2022-10-19T04:44:20.022Z,4.25
2022-10-19T04:45:20.270Z,4.26
2022-10-19T04:46:20.515Z,4.26
2022-10-19T04:47:20.850Z,4.33
2022-10-19T04:48:20.220Z,4.35
2022-10-19T04:49:21.451Z,4.35
2022-10-19T04:50:20.168Z,4.35
2022-10-19T04:51:20.136Z,4.34
2022-10-19T04:52:20.124Z,4.31
2022-10-19T04:53:20.164Z,4.28
2022-10-19T04:54:20.131Z,4.25
2022-10-19T04:55:20.131Z,4.25
2022-10-19T04:56:20.168Z,4.25
2022-10-19T04:57:20.128Z,4.24
2022-10-19T04:58:20.154Z,4.23
2022-10-19T04:59:20.158Z,4.24
2022-10-19T05:00:20.198Z,4.23
2022-10-19T05:01:20.265Z,4.25
2022-10-19T05:02:20.130Z,4.26
2022-10-19T05:03:20.143Z,4.26
2022-10-19T05:04:20.138Z,4.25
2022-10-19T05:05:20.144Z,4.25
2022-10-19T05:06:20.176Z,4.24
2022-10-19T05:07:20.152Z,4.23
2022-10-19T05:08:20.122Z,4.22
2022-10-19T05:09:20.135Z,4.19
2022-10-19T05:10:20.139Z,4.2
2022-10-19T05:11:20.179Z,4.21
2022-10-19T05:12:20.152Z,4.19
2022-10-19T05:13:20.129Z,4.16
2022-10-19T05:14:20.176Z,4.15
2022-10-19T05:15:20.125Z,4.12
2022-10-19T05:16:20.167Z,4.08
2022-10-19T05:17:20.138Z,4.06
2022-10-19T05:18:20.137Z,4.03
2022-10-19T05:19:20.143Z,4
2022-10-19T05:20:20.138Z,3.98
2022-10-19T05:21:20.160Z,3.96
2022-10-19T05:22:20.133Z,3.95
2022-10-19T05:23:20.450Z,3.97
2022-10-19T05:24:20.373Z,4
2022-10-19T05:25:20.206Z,4.05
2022-10-19T05:26:20.277Z,4.1
2022-10-19T05:27:20.131Z,4.17
2022-10-19T05:28:20.385Z,4.27
2022-10-19T05:29:20.660Z,4.31
2022-10-19T05:30:20.143Z,4.33
2022-10-19T05:31:20.152Z,4.33
2022-10-19T05:32:20.137Z,4.3
2022-10-19T05:33:20.133Z,4.26
2022-10-19T05:34:20.146Z,4.22
2022-10-19T05:35:23.347Z,4.19
2022-10-19T05:36:20.158Z,4.15
2022-10-19T05:37:20.131Z,4.12
2022-10-19T05:38:20.158Z,4.08
2022-10-19T05:39:20.151Z,4.04
2022-10-19T05:40:20.134Z,3.98
2022-10-19T05:41:20.129Z,3.93
2022-10-19T05:42:20.241Z,3.89
2022-10-19T05:43:20.162Z,3.87
2022-10-19T05:44:20.136Z,3.83
2022-10-19T05:45:20.147Z,3.82
2022-10-19T05:46:20.396Z,3.8
2022-10-19T05:47:20.166Z,3.79
2022-10-19T05:48:20.162Z,3.77
2022-10-19T05:49:20.139Z,3.75
2022-10-19T05:50:20.120Z,3.71
2022-10-19T05:51:20.131Z,3.7
2022-10-19T05:52:20.143Z,3.68
2022-10-19T05:53:20.132Z,3.66
2022-10-19T05:54:21.020Z,3.65
2022-10-19T05:55:20.144Z,3.68
2022-10-19T05:56:20.126Z,3.72
2022-10-19T05:57:20.146Z,3.78
2022-10-19T05:58:20.127Z,3.91
2022-10-19T05:59:20.254Z,4.14
2022-10-19T06:00:20.140Z,4.31
2022-10-19T06:01:20.138Z,4.44
2022-10-19T06:02:20.134Z,4.56
2022-10-19T06:03:20.151Z,4.64
2022-10-19T06:04:20.132Z,4.71
2022-10-19T06:05:20.134Z,4.79
2022-10-19T06:06:20.143Z,4.84
2022-10-19T06:07:20.157Z,4.87
2022-10-19T06:08:20.188Z,4.91
2022-10-19T06:09:20.377Z,4.93
2022-10-19T06:10:20.142Z,4.95
2022-10-19T06:11:20.125Z,4.94
2022-10-19T06:12:24.902Z,4.95
2022-10-19T06:13:20.163Z,4.95
2022-10-19T06:14:20.129Z,4.99
2022-10-19T06:15:20.144Z,5.04
2022-10-19T06:16:20.153Z,5.08
2022-10-19T06:17:20.135Z,5.11
2022-10-19T06:18:20.152Z,5.16
2022-10-19T06:19:20.179Z,5.22
2022-10-19T06:20:20.243Z,5.27
2022-10-19T06:21:20.140Z,5.34
2022-10-19T06:22:20.129Z,5.39
2022-10-19T06:23:20.130Z,5.43
2022-10-19T06:24:20.143Z,5.46
2022-10-19T06:25:21.146Z,5.52
2022-10-19T06:26:20.129Z,5.55
2022-10-19T06:27:20.153Z,5.6
2022-10-19T06:28:20.129Z,5.66
2022-10-19T06:29:20.132Z,5.72
2022-10-19T06:30:20.192Z,5.74
2022-10-19T06:31:20.138Z,5.77
2022-10-19T06:32:20.247Z,5.8
2022-10-19T06:33:20.319Z,5.83
2022-10-19T06:34:20.176Z,5.86
2022-10-19T06:35:20.131Z,5.89
2022-10-19T06:36:20.122Z,5.9
2022-10-19T06:37:20.130Z,5.92
2022-10-19T06:38:20.129Z,5.93
2022-10-19T06:39:20.140Z,5.96
2022-10-19T06:40:20.156Z,5.98
2022-10-19T06:41:20.142Z,6.01
2022-10-19T06:42:20.143Z,6.04
2022-10-19T06:43:20.165Z,6.06
2022-10-19T06:44:20.141Z,6.1
2022-10-19T06:45:20.305Z,6.14
2022-10-19T06:46:20.138Z,6.16
2022-10-19T06:47:20.144Z,6.17
2022-10-19T06:48:20.150Z,6.18
2022-10-19T06:49:20.142Z,6.18
2022-10-19T06:50:20.451Z,6.17
2022-10-19T06:51:20.456Z,6.16
2022-10-19T06:52:20.426Z,6.14
2022-10-19T06:53:20.351Z,6.15
2022-10-19T06:54:20.670Z,6.11
2022-10-19T06:55:20.942Z,6.1
2022-10-19T06:56:20.128Z,6.09
2022-10-19T06:57:20.420Z,6.08
2022-10-19T06:58:20.140Z,6.08
2022-10-19T06:59:20.384Z,6.07
2022-10-19T07:00:20.144Z,6.07
2022-10-19T07:01:20.506Z,6.09
2022-10-19T07:02:20.702Z,6.13
2022-10-19T07:03:20.173Z,6.12
2022-10-19T07:04:20.137Z,6.11
2022-10-19T07:05:20.308Z,6.09
2022-10-19T07:06:20.129Z,6.12
2022-10-19T07:07:20.384Z,6.15
2022-10-19T07:08:20.145Z,6.17
2022-10-19T07:09:20.127Z,6.18
2022-10-19T07:10:20.130Z,6.23
2022-10-19T07:11:20.137Z,6.29
2022-10-19T07:12:20.151Z,6.33
2022-10-19T07:13:20.149Z,6.36
2022-10-19T07:14:20.126Z,6.41
2022-10-19T07:15:20.141Z,6.48
2022-10-19T07:16:23.427Z,6.54
2022-10-19T07:17:20.153Z,6.6
2022-10-19T07:18:20.157Z,6.67
2022-10-19T07:19:20.150Z,6.73
2022-10-19T07:20:20.158Z,6.79
2022-10-19T07:21:20.143Z,6.89
2022-10-19T07:22:27.190Z,6.95
2022-10-19T07:23:20.155Z,7
2022-10-19T07:24:20.152Z,7.09
2022-10-19T07:25:20.138Z,7.16
2022-10-19T07:26:20.122Z,7.18
2022-10-19T07:27:20.135Z,7.3
2022-10-19T07:28:20.147Z,7.34
2022-10-19T07:29:20.159Z,7.42
2022-10-19T07:30:20.285Z,7.42
2022-10-19T07:31:20.305Z,7.38
2022-10-19T07:32:20.129Z,7.36
2022-10-19T07:33:20.148Z,7.4
2022-10-19T07:34:20.966Z,7.42
2022-10-19T07:35:20.128Z,7.43
2022-10-19T07:36:20.136Z,7.48
2022-10-19T07:37:20.135Z,7.51
2022-10-19T07:38:20.137Z,7.56
2022-10-19T07:39:20.174Z,7.57
2022-10-19T07:40:20.167Z,7.59
2022-10-19T07:41:20.182Z,7.62
2022-10-19T07:43:20.153Z,7.84
2022-10-19T07:44:20.144Z,7.87
2022-10-19T07:45:20.177Z,7.9
2022-10-19T07:46:20.126Z,7.94
2022-10-19T07:47:20.139Z,7.99
2022-10-19T07:48:20.141Z,8.07
2022-10-19T07:49:20.139Z,8.19
2022-10-19T07:50:20.143Z,8.3
2022-10-19T07:51:20.155Z,8.34
2022-10-19T07:52:20.126Z,8.41
2022-10-19T07:53:20.151Z,8.52
2022-10-19T07:54:20.148Z,8.57
2022-10-19T07:55:20.141Z,8.55
2022-10-19T07:56:20.410Z,8.66
2022-10-19T07:57:20.653Z,8.76
2022-10-19T07:58:20.634Z,8.77
2022-10-19T07:59:20.118Z,8.85
2022-10-19T08:00:20.398Z,8.89
2022-10-19T08:01:20.671Z,8.97
2022-10-19T08:02:20.169Z,9.03
2022-10-19T08:05:20.230Z,9.33
2022-10-19T08:06:20.148Z,9.42
2022-10-19T08:07:20.134Z,9.5
2022-10-19T08:08:20.133Z,9.53
2022-10-19T08:09:47.678Z,9.52
2022-10-19T08:10:20.124Z,9.54
2022-10-19T08:11:20.145Z,9.56
2022-10-19T08:12:20.135Z,9.59
2022-10-19T08:13:20.136Z,9.75
2022-10-19T08:14:20.160Z,9.73
2022-10-19T08:15:20.206Z,9.82
2022-10-19T08:16:20.157Z,9.88
2022-10-19T08:17:20.135Z,9.97
2022-10-19T08:18:20.141Z,10.1
2022-10-19T08:19:20.133Z,10.18
2022-10-19T08:20:20.142Z,10.17
2022-10-19T08:21:20.139Z,10.23
2022-10-19T08:22:20.132Z,10.3
2022-10-19T08:23:20.145Z,10.45
2022-10-19T08:24:20.173Z,10.53
2022-10-19T08:25:20.142Z,10.57
2022-10-19T08:26:20.143Z,10.58
2022-10-19T08:27:20.167Z,10.68
2022-10-19T08:28:20.136Z,10.86
2022-10-19T08:29:20.144Z,11
2022-10-19T08:30:20.139Z,11.1
2022-10-19T08:31:20.147Z,11.14
2022-10-19T08:32:20.136Z,11.14
2022-10-19T08:33:20.140Z,11.18
2022-10-19T08:34:20.175Z,11.2
2022-10-19T08:35:20.131Z,11.37
2022-10-19T08:36:20.194Z,11.5
2022-10-19T08:37:39.904Z,11.66
2022-10-19T08:38:20.349Z,11.65
2022-10-19T08:39:20.214Z,11.84
2022-10-19T08:40:20.646Z,11.92
2022-10-19T08:41:20.675Z,11.97
2022-10-19T08:42:20.420Z,12.03
2022-10-19T08:43:20.145Z,12.08
2022-10-19T08:44:20.276Z,12.2
2022-10-19T08:45:20.140Z,12.28
2022-10-19T08:46:20.163Z,12.46
2022-10-19T08:47:23.665Z,12.47
2022-10-19T08:48:20.141Z,12.49
2022-10-19T08:49:20.155Z,12.51
2022-10-19T08:50:20.185Z,12.47
2022-10-19T08:51:20.349Z,12.56
2022-10-19T08:52:20.136Z,12.62
2022-10-19T08:53:20.171Z,12.71
2022-10-19T08:54:20.134Z,12.77
2022-10-19T08:55:21.141Z,12.78
2022-10-19T08:56:39.242Z,12.81
2022-10-19T08:57:20.137Z,12.77
2022-10-19T08:58:20.227Z,12.79
2022-10-19T08:59:20.140Z,12.81
2022-10-19T09:00:20.173Z,12.86
2022-10-19T09:01:20.126Z,12.9
2022-10-19T09:02:20.635Z,12.93
2022-10-19T09:03:27.284Z,12.96
2022-10-19T09:04:20.147Z,13.12
2022-10-19T09:05:20.124Z,13.17
2022-10-19T09:06:20.144Z,13.24
2022-10-19T09:07:20.128Z,13.21
2022-10-19T09:08:20.133Z,13.27
2022-10-19T09:09:20.153Z,13.35
2022-10-19T09:10:20.168Z,13.34
2022-10-19T09:11:20.131Z,13.46
2022-10-19T09:12:20.145Z,13.52
2022-10-19T09:13:20.134Z,13.48
2022-10-19T09:14:20.129Z,13.43
2022-10-19T09:15:20.135Z,13.46
2022-10-19T09:16:20.140Z,13.44
2022-10-19T09:17:20.142Z,13.42
2022-10-19T09:18:20.149Z,13.35
2022-10-19T09:19:20.140Z,13.27
2022-10-19T09:20:20.139Z,13.27
2022-10-19T09:21:20.137Z,13.32
2022-10-19T09:22:20.152Z,13.3
2022-10-19T09:23:20.138Z,13.35
2022-10-19T09:24:20.139Z,13.38
2022-10-19T09:25:20.226Z,13.29
2022-10-19T09:26:20.141Z,13.32
2022-10-19T09:27:20.136Z,13.35
2022-10-19T09:28:20.134Z,13.38
2022-10-19T09:29:20.133Z,13.45
2022-10-19T09:30:20.130Z,13.57
2022-10-19T09:31:20.141Z,13.53
2022-10-19T09:32:20.134Z,13.47
2022-10-19T09:33:20.142Z,13.46
2022-10-19T09:34:20.137Z,13.5
2022-10-19T09:35:20.147Z,13.61
2022-10-19T09:36:33.212Z,13.69
2022-10-19T09:37:25.881Z,13.71
2022-10-19T09:38:20.137Z,13.73
2022-10-19T09:39:20.134Z,13.68
2022-10-19T09:40:20.134Z,13.73
2022-10-19T09:41:20.130Z,13.67
2022-10-19T09:42:20.137Z,13.8
2022-10-19T09:43:20.148Z,13.81
2022-10-19T09:44:20.137Z,13.85
2022-10-19T09:45:20.153Z,13.71
2022-10-19T09:46:21.147Z,13.85
2022-10-19T09:47:20.140Z,13.76
2022-10-19T09:48:20.159Z,13.72
2022-10-19T09:49:20.381Z,13.76
2022-10-19T09:50:20.135Z,13.72
2022-10-19T09:51:20.130Z,13.62
2022-10-19T09:52:20.139Z,13.59
2022-10-19T09:53:20.123Z,13.47
2022-10-19T09:54:20.406Z,13.53
2022-10-19T09:55:20.130Z,13.52
2022-10-19T09:56:20.364Z,13.46
2022-10-19T09:57:20.271Z,13.46
2022-10-19T09:58:20.588Z,13.49
2022-10-19T09:59:20.935Z,13.5
2022-10-19T10:00:20.741Z,13.44
2022-10-19T10:01:20.419Z,13.56
2022-10-19T10:02:20.206Z,13.58
2022-10-19T10:03:20.424Z,13.58
2022-10-19T10:04:20.131Z,13.63
2022-10-19T10:05:20.137Z,13.73
2022-10-19T10:06:20.127Z,13.95
2022-10-19T10:07:20.133Z,14.11
2022-10-19T10:08:20.133Z,14.08
2022-10-19T10:09:20.227Z,14.33
2022-10-19T10:10:20.145Z,14.52
2022-10-19T10:11:20.191Z,14.44
2022-10-19T10:12:20.120Z,14.7
2022-10-19T10:13:20.356Z,14.65
2022-10-19T10:14:20.133Z,14.86
2022-10-19T10:15:20.355Z,14.7
2022-10-19T10:16:20.177Z,14.84
2022-10-19T10:17:20.466Z,15
2022-10-19T10:18:20.138Z,15.14
2022-10-19T10:19:23.151Z,15.25
2022-10-19T10:20:20.242Z,15.26
2022-10-19T10:21:25.241Z,15.15
2022-10-19T10:22:20.150Z,15.1
2022-10-19T10:23:20.129Z,15.05
2022-10-19T10:24:20.135Z,14.95
2022-10-19T10:25:20.124Z,14.97
2022-10-19T10:26:20.125Z,14.94
2022-10-19T10:27:20.133Z,15.02
2022-10-19T10:28:20.126Z,15.01
2022-10-19T10:29:20.134Z,15.16
2022-10-19T10:30:20.129Z,15.35
2022-10-19T10:31:20.129Z,15.58
2022-10-19T10:32:20.146Z,15.39
2022-10-19T10:33:27.191Z,15.43
2022-10-19T10:35:20.132Z,15.16
2022-10-19T10:36:20.123Z,14.96
2022-10-19T10:37:20.133Z,15.07
2022-10-19T10:38:20.127Z,15.19
2022-10-19T10:39:20.135Z,15.17
2022-10-19T10:40:23.704Z,15.19
2022-10-19T10:41:20.131Z,15.48
2022-10-19T10:42:20.125Z,15.63
2022-10-19T10:43:20.138Z,15.48
2022-10-19T10:44:20.140Z,15.75
2022-10-19T10:45:20.345Z,15.74
2022-10-19T10:46:20.131Z,16.04
2022-10-19T10:47:20.138Z,16.18
2022-10-19T10:48:20.134Z,16.3
2022-10-19T10:49:20.143Z,16.12
2022-10-19T10:50:20.127Z,16.19
2022-10-19T10:51:20.131Z,15.95
2022-10-19T10:52:20.145Z,15.74
2022-10-19T10:53:20.143Z,15.82
2022-10-19T10:54:20.140Z,15.8
2022-10-19T10:55:20.222Z,15.69
2022-10-19T10:56:20.153Z,15.59
2022-10-19T10:57:20.187Z,15.53
2022-10-19T10:58:20.132Z,15.51
2022-10-19T10:59:20.138Z,15.71
2022-10-19T11:00:20.143Z,15.57
2022-10-19T11:01:20.144Z,15.48
2022-10-19T11:02:20.214Z,15.51
2022-10-19T11:03:20.129Z,15.77
2022-10-19T11:04:20.132Z,15.91
2022-10-19T11:05:20.147Z,16.02
2022-10-19T11:06:20.176Z,16.19
2022-10-19T11:07:20.138Z,15.68
2022-10-19T11:08:20.279Z,15.9
2022-10-19T11:09:20.129Z,15.88
2022-10-19T11:10:20.133Z,15.51
2022-10-19T11:11:20.129Z,15.45
2022-10-19T11:12:20.127Z,15.74
2022-10-19T11:13:20.247Z,15.72
2022-10-19T11:14:20.155Z,15.67
2022-10-19T11:15:20.190Z,15.86
2022-10-19T11:16:20.132Z,16.3
2022-10-19T11:17:20.152Z,16.43
2022-10-19T11:18:20.234Z,16.67
2022-10-19T11:19:20.235Z,16.32
2022-10-19T11:20:20.131Z,16.03
2022-10-19T11:21:20.127Z,15.7
2022-10-19T11:22:24.865Z,15.78
2022-10-19T11:23:20.137Z,15.53
2022-10-19T11:24:20.184Z,15.79
2022-10-19T11:25:20.146Z,16.06
2022-10-19T11:26:20.131Z,15.96
2022-10-19T11:27:20.129Z,15.45
2022-10-19T11:28:20.145Z,15.49
2022-10-19T11:29:20.146Z,15.51
2022-10-19T11:30:20.252Z,15.74
2022-10-19T11:31:20.152Z,16.02
2022-10-19T11:32:20.137Z,16.1
2022-10-19T11:33:20.134Z,16.09
2022-10-19T11:34:25.080Z,16.03
2022-10-19T11:35:20.142Z,16.13
2022-10-19T11:36:20.138Z,16.11
2022-10-19T11:37:20.133Z,16.2
2022-10-19T11:38:26.315Z,16.18
2022-10-19T11:39:20.129Z,16.14
2022-10-19T11:40:23.408Z,16.15
2022-10-19T11:41:20.245Z,15.8
2022-10-19T11:42:20.130Z,15.98
2022-10-19T11:43:24.826Z,15.61
2022-10-19T11:44:20.147Z,15.58
2022-10-19T11:45:20.126Z,15.43
2022-10-19T11:46:20.140Z,15.75
2022-10-19T11:47:20.135Z,16.02
2022-10-19T11:48:20.392Z,16.2
2022-10-19T11:49:20.704Z,16.3
2022-10-19T11:50:20.634Z,16.08
2022-10-19T11:51:22.225Z,16.03
2022-10-19T11:52:20.413Z,15.89
2022-10-19T11:53:20.588Z,15.66
2022-10-19T11:54:21.118Z,15.52
2022-10-19T11:55:20.403Z,15.35
2022-10-19T11:56:20.131Z,15.28
2022-10-19T11:57:20.298Z,15.07
2022-10-19T11:58:20.172Z,15.18
2022-10-19T11:59:20.445Z,15.49
2022-10-19T12:01:20.396Z,15.89
2022-10-19T12:02:20.320Z,16.23
2022-10-19T12:03:20.144Z,16.07
2022-10-19T12:04:20.279Z,16.07
2022-10-19T12:05:20.467Z,15.85
2022-10-19T12:06:20.133Z,16.21
2022-10-19T12:07:20.123Z,16.21
2022-10-19T12:09:20.206Z,15.9
2022-10-19T12:10:20.148Z,15.41
2022-10-19T12:11:20.128Z,15.72
2022-10-19T12:12:20.146Z,15.67
2022-10-19T12:13:20.151Z,15.92
2022-10-19T12:14:20.143Z,16.04
2022-10-19T12:15:20.145Z,16.29
2022-10-19T12:16:20.133Z,16.13
2022-10-19T12:17:20.249Z,16.21
2022-10-19T12:18:20.169Z,16.16
2022-10-19T12:19:20.149Z,16.26
2022-10-19T12:20:21.139Z,16.27
2022-10-19T12:21:20.135Z,16.55
2022-10-19T12:22:20.136Z,16.85
2022-10-19T12:23:20.166Z,16.91
2022-10-19T12:24:20.142Z,16.97
2022-10-19T12:25:20.156Z,16.86
2022-10-19T12:26:20.196Z,16.71
2022-10-19T12:27:20.144Z,16.39
2022-10-19T12:28:20.160Z,16.4
2022-10-19T12:29:20.164Z,16.27
2022-10-19T12:30:20.126Z,16.18
2022-10-19T12:31:20.140Z,15.84
2022-10-19T12:32:20.128Z,15.59
2022-10-19T12:33:20.170Z,15.59
2022-10-19T12:34:20.131Z,15.87
2022-10-19T12:35:21.144Z,16.19
2022-10-19T12:36:20.144Z,16.2
2022-10-19T12:37:20.138Z,16.38
2022-10-19T12:38:20.188Z,16.46
2022-10-19T12:39:20.154Z,16.23
2022-10-19T12:40:20.137Z,16.1
2022-10-19T12:41:20.229Z,15.43
2022-10-19T12:42:20.147Z,15.35
2022-10-19T12:43:20.162Z,15.68
2022-10-19T12:44:20.171Z,15.87
2022-10-19T12:45:20.135Z,15.6
2022-10-19T12:46:20.122Z,15.57
2022-10-19T12:47:20.141Z,15.72
2022-10-19T12:48:20.160Z,15.73
2022-10-19T12:49:20.149Z,15.38
2022-10-19T12:50:21.206Z,15.59
2022-10-19T12:51:20.155Z,15.76
2022-10-19T12:52:20.146Z,15.55
2022-10-19T12:53:20.209Z,15.53
2022-10-19T12:54:20.131Z,15.84
2022-10-19T12:55:20.150Z,15.86
2022-10-19T12:56:20.132Z,16.04
2022-10-19T12:57:23.437Z,16.09
2022-10-19T12:58:20.151Z,16.15
2022-10-19T12:59:20.139Z,16.21
2022-10-19T13:00:20.127Z,16.4
2022-10-19T13:01:20.140Z,16.28
2022-10-19T13:02:20.182Z,16.14
2022-10-19T13:03:20.334Z,15.64
2022-10-19T13:04:20.314Z,15.48
2022-10-19T13:05:20.260Z,15.61
2022-10-19T13:06:20.246Z,15.47
2022-10-19T13:07:20.546Z,15.63
2022-10-19T13:08:20.155Z,15.78
2022-10-19T13:09:20.340Z,15.8
2022-10-19T13:10:20.610Z,15.52
2022-10-19T13:11:20.134Z,15.39
2022-10-19T13:12:25.574Z,15.25
2022-10-19T13:13:20.166Z,15.16
2022-10-19T13:14:20.140Z,15.43
2022-10-19T13:15:20.200Z,15.67
2022-10-19T13:16:20.129Z,15.87
2022-10-19T13:17:20.139Z,16.04
2022-10-19T13:18:20.143Z,16.11